^^
Saratoga-Weather Station Historical Data
Daily Summary for August 30, 2021 Units:  Both    English   Metric
Daily Weekly Monthly Yearly Custom
  High: Low: Average:
Temperature: 61.9 °F /  16.6 °C 55.8 °F /  13.2 °C 58.1 °F /  14.5 °C
Dew Point: 58.5 °F /  14.7 °C 53.6 °F /  12 °C 55.6 °F /  13.1 °C
Humidity: 94% 81% 91%
Wind Speed: 12.1mph /  19.5km/h - 2.8mph /  4.5km/h
Wind Gust: 16mph /  25.7km/h - -
Wind- - West
Pressure: 30 in /  1015.2 hPa 29.9 in /  1011.2 hPa -
Precipitation: 0.22 in /  5.6 mm    
Historical Graphs
 
 
Tabular Data for August 30, 2021
Time Temperature Dew Point Pressure Wind Wind Speed Wind Gust Humidity Rainfall Rate (Hourly) solar
00:01 57.7 °F /  14.3 °C 55.8 °F /  13.2 °C 29.9in /  1011.5hPa West 2mph /  3.2km/h 3mph /  4.8km/h 93% 0in /  0.0mm 0 W/m2
00:06 57.6 °F /  14.2 °C 55.6 °F /  13.1 °C 29.9in /  1011.9hPa WNW 0.9mph /  1.4km/h 1mph /  1.6km/h 93% 0in /  0.0mm 0 W/m2
00:11 57.4 °F /  14.1 °C 55.4 °F /  13 °C 29.9in /  1011.9hPa West 2.9mph /  4.7km/h 3mph /  4.8km/h 93% 0in /  0.0mm 0 W/m2
00:16 57.4 °F /  14.1 °C 55 °F /  12.8 °C 29.9in /  1011.9hPa West 0.9mph /  1.4km/h 3mph /  4.8km/h 92% 0in /  0.0mm 0 W/m2
00:21 57.2 °F /  14 °C 54.9 °F /  12.7 °C 29.9in /  1011.9hPa West 2mph /  3.2km/h 5mph /  8km/h 92% 0in /  0.0mm 0 W/m2
00:26 57.2 °F /  14 °C 54.9 °F /  12.7 °C 29.9in /  1011.5hPa West 2.9mph /  4.7km/h 6mph /  9.7km/h 92% 0in /  0.0mm 0 W/m2
00:31 57.2 °F /  14 °C 54.9 °F /  12.7 °C 29.9in /  1011.5hPa WNW 0.9mph /  1.4km/h 6mph /  9.7km/h 92% 0in /  0.0mm 0 W/m2
00:36 57.4 °F /  14.1 °C 55 °F /  12.8 °C 29.9in /  1011.5hPa Calm   2mph /  3.2km/h 92% 0in /  0.0mm 0 W/m2
00:41 57.2 °F /  14 °C 54.9 °F /  12.7 °C 29.9in /  1011.9hPa West 2.9mph /  4.7km/h 4mph /  6.4km/h 92% 0in /  0.0mm 0 W/m2
00:46 57.2 °F /  14 °C 54.9 °F /  12.7 °C 29.9in /  1011.9hPa Calm   3mph /  4.8km/h 92% 0in /  0.0mm 0 W/m2
00:51 57.2 °F /  14 °C 54.9 °F /  12.7 °C 29.9in /  1011.9hPa Calm   3mph /  4.8km/h 92% 0in /  0.0mm 0 W/m2
00:56 57.2 °F /  14 °C 54.9 °F /  12.7 °C 29.9in /  1011.9hPa WNW 2mph /  3.2km/h 4mph /  6.4km/h 92% 0in /  0.0mm 0 W/m2
01:01 57.4 °F /  14.1 °C 55 °F /  12.8 °C 29.9in /  1011.9hPa West 2mph /  3.2km/h 3mph /  4.8km/h 92% 0in /  0.0mm 0 W/m2
01:06 57.4 °F /  14.1 °C 55 °F /  12.8 °C 29.9in /  1011.9hPa WNW 0.9mph /  1.4km/h 3mph /  4.8km/h 92% 0in /  0.0mm 0 W/m2
01:11 57.6 °F /  14.2 °C 55 °F /  12.8 °C 29.9in /  1011.9hPa West 2mph /  3.2km/h 3mph /  4.8km/h 91% 0in /  0.0mm 0 W/m2
01:16 57.7 °F /  14.3 °C 55.2 °F /  12.9 °C 29.9in /  1011.9hPa Calm   1mph /  1.6km/h 91% 0in /  0.0mm 0 W/m2
01:21 57.7 °F /  14.3 °C 55.2 °F /  12.9 °C 29.9in /  1011.9hPa Calm   3mph /  4.8km/h 91% 0in /  0.0mm 0 W/m2
01:26 57.6 °F /  14.2 °C 55.2 °F /  12.9 °C 29.9in /  1011.9hPa Calm     92% 0in /  0.0mm 0 W/m2
01:31 57.4 °F /  14.1 °C 55 °F /  12.8 °C 29.9in /  1011.9hPa Calm   1mph /  1.6km/h 92% 0in /  0.0mm 0 W/m2
01:36 57.2 °F /  14 °C 54.9 °F /  12.7 °C 29.9in /  1011.9hPa Calm     92% 0in /  0.0mm 0 W/m2
01:41 57 °F /  13.9 °C 54.7 °F /  12.6 °C 29.9in /  1011.9hPa Calm   2mph /  3.2km/h 92% 0in /  0.0mm 0 W/m2
01:46 57 °F /  13.9 °C 54.7 °F /  12.6 °C 29.9in /  1011.5hPa WNW 4mph /  6.4km/h 4mph /  6.4km/h 92% 0in /  0.0mm 0 W/m2
01:51 57 °F /  13.9 °C 55 °F /  12.8 °C 29.9in /  1011.5hPa WNW 0.9mph /  1.4km/h 3mph /  4.8km/h 93% 0in /  0.0mm 0 W/m2
01:56 57.2 °F /  14 °C 54.9 °F /  12.7 °C 29.9in /  1011.5hPa SW 2.9mph /  4.7km/h 6mph /  9.7km/h 92% 0in /  0.0mm 0 W/m2
02:01 57.4 °F /  14.1 °C 55 °F /  12.8 °C 29.9in /  1011.2hPa NW 2.9mph /  4.7km/h 6mph /  9.7km/h 92% 0in /  0.0mm 0 W/m2
02:06 57.4 °F /  14.1 °C 55 °F /  12.8 °C 29.9in /  1011.5hPa NW 4mph /  6.4km/h 7mph /  11.3km/h 92% 0in /  0.0mm 0 W/m2
02:11 57.4 °F /  14.1 °C 55 °F /  12.8 °C 29.9in /  1011.5hPa WNW 6.9mph /  11.1km/h 7mph /  11.3km/h 92% 0in /  0.0mm 0 W/m2
02:16 57.4 °F /  14.1 °C 55 °F /  12.8 °C 29.9in /  1011.5hPa WNW 0.9mph /  1.4km/h 2mph /  3.2km/h 92% 0in /  0.0mm 0 W/m2
02:21 57.2 °F /  14 °C 54.9 °F /  12.7 °C 29.9in /  1011.5hPa West 2mph /  3.2km/h 7mph /  11.3km/h 92% 0in /  0.0mm 0 W/m2
02:26 57 °F /  13.9 °C 55 °F /  12.8 °C 29.9in /  1011.2hPa NW 2mph /  3.2km/h 3mph /  4.8km/h 93% 0in /  0.0mm 0 W/m2
02:31 57 °F /  13.9 °C 55 °F /  12.8 °C 29.9in /  1011.5hPa SW 2mph /  3.2km/h 7mph /  11.3km/h 93% 0in /  0.0mm 0 W/m2
02:36 56.8 °F /  13.8 °C 54.9 °F /  12.7 °C 29.9in /  1011.5hPa West 8.1mph /  13km/h 8mph /  12.9km/h 93% 0in /  0.0mm 0 W/m2
02:41 56.8 °F /  13.8 °C 54.9 °F /  12.7 °C 29.9in /  1011.2hPa WSW 4.9mph /  7.9km/h 5mph /  8km/h 93% 0in /  0.0mm 0 W/m2
02:46 56.8 °F /  13.8 °C 54.9 °F /  12.7 °C 29.9in /  1011.5hPa WNW 0.9mph /  1.4km/h 3mph /  4.8km/h 93% 0in /  0.0mm 0 W/m2
02:51 56.7 °F /  13.7 °C 55 °F /  12.8 °C 29.9in /  1011.5hPa West 4mph /  6.4km/h 5mph /  8km/h 94% 0in /  0.0mm 0 W/m2
02:56 56.7 °F /  13.7 °C 54.7 °F /  12.6 °C 29.9in /  1011.5hPa WSW 2mph /  3.2km/h 4mph /  6.4km/h 93% 0in /  0.0mm 0 W/m2
03:01 56.5 °F /  13.6 °C 54.9 °F /  12.7 °C 29.9in /  1011.9hPa West 6.9mph /  11.1km/h 7mph /  11.3km/h 94% 0in /  0.0mm 0 W/m2
03:06 56.5 °F /  13.6 °C 54.9 °F /  12.7 °C 29.9in /  1011.9hPa WNW 0.9mph /  1.4km/h 3mph /  4.8km/h 94% 0in /  0.0mm 0 W/m2
03:11 56.5 °F /  13.6 °C 54.9 °F /  12.7 °C 29.9in /  1011.9hPa WNW 0.9mph /  1.4km/h 2mph /  3.2km/h 94% 0in /  0.0mm 0 W/m2
03:16 56.5 °F /  13.6 °C 54.9 °F /  12.7 °C 29.9in /  1011.9hPa WNW 2mph /  3.2km/h 4mph /  6.4km/h 94% 0in /  0.0mm 0 W/m2
03:21 56.5 °F /  13.6 °C 54.9 °F /  12.7 °C 29.9in /  1011.9hPa Calm   1mph /  1.6km/h 94% 0in /  0.0mm 0 W/m2
03:26 56.7 °F /  13.7 °C 55 °F /  12.8 °C 29.9in /  1011.9hPa Calm   4mph /  6.4km/h 94% 0in /  0.0mm 0 W/m2
03:31 56.7 °F /  13.7 °C 55 °F /  12.8 °C 29.9in /  1011.9hPa WNW 2.9mph /  4.7km/h 5mph /  8km/h 94% 0in /  0.0mm 0 W/m2
03:36 56.7 °F /  13.7 °C 55 °F /  12.8 °C 29.9in /  1011.9hPa WSW 2mph /  3.2km/h 4mph /  6.4km/h 94% 0in /  0.0mm 0 W/m2
03:41 56.7 °F /  13.7 °C 55 °F /  12.8 °C 29.9in /  1011.9hPa SW 0.9mph /  1.4km/h 5mph /  8km/h 94% 0in /  0.0mm 0 W/m2
03:46 56.7 °F /  13.7 °C 55 °F /  12.8 °C 29.9in /  1011.9hPa WNW 0.9mph /  1.4km/h 2mph /  3.2km/h 94% 0in /  0.0mm 0 W/m2
03:51 56.5 °F /  13.6 °C 54.9 °F /  12.7 °C 29.9in /  1011.9hPa WSW 0.9mph /  1.4km/h 3mph /  4.8km/h 94% 0in /  0.0mm 0 W/m2
03:56 56.5 °F /  13.6 °C 54.9 °F /  12.7 °C 29.9in /  1011.9hPa Calm     94% 0in /  0.0mm 0 W/m2
04:02 56.3 °F /  13.5 °C 54.7 °F /  12.6 °C 29.9in /  1011.9hPa NW 0.9mph /  1.4km/h 3mph /  4.8km/h 94% 0in /  0.0mm 0 W/m2
04:07 56.3 °F /  13.5 °C 54.7 °F /  12.6 °C 29.9in /  1011.9hPa Calm   2mph /  3.2km/h 94% 0in /  0.0mm 0 W/m2
04:12 56.3 °F /  13.5 °C 54.7 °F /  12.6 °C 29.9in /  1011.9hPa Calm   1mph /  1.6km/h 94% 0in /  0.0mm 0 W/m2
04:17 56.3 °F /  13.5 °C 54.7 °F /  12.6 °C 29.9in /  1011.9hPa Calm   2mph /  3.2km/h 94% 0in /  0.0mm 0 W/m2
04:22 56.3 °F /  13.5 °C 54.7 °F /  12.6 °C 29.9in /  1011.9hPa North 0.9mph /  1.4km/h 3mph /  4.8km/h 94% 0in /  0.0mm 0 W/m2
04:27 56.3 °F /  13.5 °C 54.7 °F /  12.6 °C 29.9in /  1011.9hPa NE 2mph /  3.2km/h 2mph /  3.2km/h 94% 0in /  0.0mm 0 W/m2
04:32 56.5 °F /  13.6 °C 54.9 °F /  12.7 °C 29.9in /  1011.9hPa NNE 2mph /  3.2km/h 2mph /  3.2km/h 94% 0in /  0.0mm 0 W/m2
04:37 56.5 °F /  13.6 °C 54.9 °F /  12.7 °C 29.9in /  1011.9hPa Calm   1mph /  1.6km/h 94% 0in /  0.0mm 0 W/m2
04:42 56.5 °F /  13.6 °C 54.9 °F /  12.7 °C 29.9in /  1011.9hPa Calm   1mph /  1.6km/h 94% 0in /  0.0mm 0 W/m2
04:47 56.5 °F /  13.6 °C 54.9 °F /  12.7 °C 29.9in /  1011.9hPa Calm   2mph /  3.2km/h 94% 0in /  0.0mm 0 W/m2
04:52 56.5 °F /  13.6 °C 54.9 °F /  12.7 °C 29.9in /  1011.9hPa NNW 0.9mph /  1.4km/h 3mph /  4.8km/h 94% 0in /  0.0mm 0 W/m2
04:57 56.5 °F /  13.6 °C 54.9 °F /  12.7 °C 29.9in /  1012.2hPa Calm     94% 0in /  0.0mm 0 W/m2
05:02 56.7 °F /  13.7 °C 55 °F /  12.8 °C 29.9in /  1011.9hPa Calm   3mph /  4.8km/h 94% 0in /  0.0mm 0 W/m2
05:07 56.5 °F /  13.6 °C 54.9 °F /  12.7 °C 29.9in /  1011.9hPa South 0.9mph /  1.4km/h 6mph /  9.7km/h 94% 0in /  0.0mm 0 W/m2
05:12 56.5 °F /  13.6 °C 54.5 °F /  12.5 °C 29.9in /  1011.9hPa West 0.9mph /  1.4km/h 2mph /  3.2km/h 93% 0in /  0.0mm 0 W/m2
05:17 56.5 °F /  13.6 °C 54.5 °F /  12.5 °C 29.9in /  1011.9hPa West 2mph /  3.2km/h 3mph /  4.8km/h 93% 0in /  0.0mm 0 W/m2
05:22 56.5 °F /  13.6 °C 54.5 °F /  12.5 °C 29.9in /  1011.9hPa Calm   2mph /  3.2km/h 93% 0in /  0.0mm 0 W/m2
05:27 56.5 °F /  13.6 °C 54.5 °F /  12.5 °C 29.9in /  1011.9hPa NW 0.9mph /  1.4km/h 3mph /  4.8km/h 93% 0in /  0.0mm 0 W/m2
05:32 56.5 °F /  13.6 °C 54.5 °F /  12.5 °C 29.9in /  1011.9hPa North 2mph /  3.2km/h 2mph /  3.2km/h 93% 0in /  0.0mm 0 W/m2
05:37 56.5 °F /  13.6 °C 54.5 °F /  12.5 °C 29.9in /  1011.9hPa NNW 2mph /  3.2km/h 3mph /  4.8km/h 93% 0in /  0.0mm 0 W/m2
05:42 56.5 °F /  13.6 °C 54.5 °F /  12.5 °C 29.9in /  1011.9hPa NNE 0.9mph /  1.4km/h 3mph /  4.8km/h 93% 0in /  0.0mm 0 W/m2
05:47 56.5 °F /  13.6 °C 54.5 °F /  12.5 °C 29.9in /  1011.9hPa Calm   2mph /  3.2km/h 93% 0in /  0.0mm 7 W/m2
05:52 56.5 °F /  13.6 °C 54.5 °F /  12.5 °C 29.9in /  1011.9hPa Calm   3mph /  4.8km/h 93% 0in /  0.0mm 12 W/m2
05:57 56.5 °F /  13.6 °C 54.5 °F /  12.5 °C 29.9in /  1011.9hPa NNW 0.9mph /  1.4km/h 2mph /  3.2km/h 93% 0in /  0.0mm 16 W/m2
06:02 56.7 °F /  13.7 °C 54.7 °F /  12.6 °C 29.9in /  1011.5hPa NW 0.9mph /  1.4km/h 5mph /  8km/h 93% 0in /  0.0mm 19 W/m2
06:07 56.7 °F /  13.7 °C 54.7 °F /  12.6 °C 29.9in /  1011.9hPa NW 2mph /  3.2km/h 4mph /  6.4km/h 93% 0in /  0.0mm 21 W/m2
06:12 56.5 °F /  13.6 °C 54.5 °F /  12.5 °C 29.9in /  1011.9hPa Calm   2mph /  3.2km/h 93% 0in /  0.0mm 19 W/m2
06:17 56.7 °F /  13.7 °C 54.7 °F /  12.6 °C 29.9in /  1011.9hPa NW 2mph /  3.2km/h 3mph /  4.8km/h 93% 0in /  0.0mm 26 W/m2
06:22 56.7 °F /  13.7 °C 54.7 °F /  12.6 °C 29.9in /  1011.9hPa NW 0.9mph /  1.4km/h 3mph /  4.8km/h 93% 0in /  0.0mm 26 W/m2
06:27 56.7 °F /  13.7 °C 54.7 °F /  12.6 °C 29.9in /  1011.9hPa Calm   4mph /  6.4km/h 93% 0in /  0.0mm 32 W/m2
06:32 56.7 °F /  13.7 °C 54.7 °F /  12.6 °C 29.9in /  1011.9hPa SW 4mph /  6.4km/h 6mph /  9.7km/h 93% 0in /  0.0mm 30 W/m2
06:37 56.7 °F /  13.7 °C 54.7 °F /  12.6 °C 29.9in /  1011.9hPa ENE 0.9mph /  1.4km/h 3mph /  4.8km/h 93% 0in /  0.0mm 32 W/m2
06:42 56.7 °F /  13.7 °C 54.3 °F /  12.4 °C 29.9in /  1011.9hPa NE 2mph /  3.2km/h 3mph /  4.8km/h 92% 0in /  0.0mm 35 W/m2
06:47 56.8 °F /  13.8 °C 54.5 °F /  12.5 °C 29.9in /  1011.9hPa NW 0.9mph /  1.4km/h 2mph /  3.2km/h 92% 0in /  0.0mm 33 W/m2
06:52 56.8 °F /  13.8 °C 54.5 °F /  12.5 °C 29.9in /  1011.9hPa NNW 2.9mph /  4.7km/h 5mph /  8km/h 92% 0in /  0.0mm 30 W/m2
06:57 56.8 °F /  13.8 °C 54.5 °F /  12.5 °C 29.9in /  1011.9hPa West 6mph /  9.7km/h 6mph /  9.7km/h 92% 0in /  0.0mm 23 W/m2
07:02 56.8 °F /  13.8 °C 54.5 °F /  12.5 °C 29.9in /  1011.9hPa NW 2mph /  3.2km/h 2mph /  3.2km/h 92% 0in /  0.0mm 21 W/m2
07:07 56.8 °F /  13.8 °C 54.5 °F /  12.5 °C 29.9in /  1011.9hPa Calm   2mph /  3.2km/h 92% 0in /  0.0mm 30 W/m2
07:12 56.8 °F /  13.8 °C 54.5 °F /  12.5 °C 29.9in /  1011.9hPa Calm   3mph /  4.8km/h 92% 0in /  0.0mm 21 W/m2
07:17 57 °F /  13.9 °C 54.7 °F /  12.6 °C 29.9in /  1011.9hPa Calm   1mph /  1.6km/h 92% 0in /  0.0mm 28 W/m2
07:22 57 °F /  13.9 °C 54.7 °F /  12.6 °C 29.9in /  1011.9hPa Calm   3mph /  4.8km/h 92% 0in /  0.0mm 28 W/m2
07:28 57 °F /  13.9 °C 54.7 °F /  12.6 °C 29.9in /  1011.9hPa Calm   2mph /  3.2km/h 92% 0in /  0.0mm 33 W/m2
07:33 57 °F /  13.9 °C 54.7 °F /  12.6 °C 29.9in /  1011.9hPa WNW 0.9mph /  1.4km/h 3mph /  4.8km/h 92% 0in /  0.0mm 44 W/m2
07:38 57 °F /  13.9 °C 54.5 °F /  12.5 °C 29.9in /  1011.9hPa ESE 0.9mph /  1.4km/h 3mph /  4.8km/h 91% 0in /  0.0mm 74 W/m2
07:43 57.2 °F /  14 °C 54.7 °F /  12.6 °C 29.9in /  1011.9hPa NW 0.9mph /  1.4km/h 2mph /  3.2km/h 91% 0in /  0.0mm 102 W/m2
07:48 57.4 °F /  14.1 °C 54.9 °F /  12.7 °C 29.9in /  1011.9hPa WNW 2.9mph /  4.7km/h 4mph /  6.4km/h 91% 0in /  0.0mm 178 W/m2
07:53 57.7 °F /  14.3 °C 54.9 °F /  12.7 °C 29.9in /  1011.9hPa NW 2mph /  3.2km/h 4mph /  6.4km/h 90% 0in /  0.0mm 199 W/m2
07:58 57.9 °F /  14.4 °C 55 °F /  12.8 °C 29.9in /  1011.9hPa NW 4.9mph /  7.9km/h 5mph /  8km/h 90% 0in /  0.0mm 153 W/m2
08:03 58.1 °F /  14.5 °C 55.2 °F /  12.9 °C 29.9in /  1011.9hPa Calm   4mph /  6.4km/h 90% 0in /  0.0mm 174 W/m2
08:08 58.3 °F /  14.6 °C 55.4 °F /  13 °C 29.9in /  1011.9hPa WNW 5mph /  8km/h 5mph /  8km/h 90% 0in /  0.0mm 179 W/m2
08:13 58.5 °F /  14.7 °C 55.2 °F /  12.9 °C 29.9in /  1011.5hPa WNW 2.9mph /  4.7km/h 3mph /  4.8km/h 89% 0in /  0.0mm 283 W/m2
08:18 58.6 °F /  14.8 °C 55.4 °F /  13 °C 29.9in /  1011.5hPa West 2mph /  3.2km/h 3mph /  4.8km/h 89% 0in /  0.0mm 183 W/m2
08:23 58.6 °F /  14.8 °C 55.4 °F /  13 °C 29.9in /  1011.5hPa WNW 4mph /  6.4km/h 4mph /  6.4km/h 89% 0in /  0.0mm 167 W/m2
08:28 58.6 °F /  14.8 °C 55.4 °F /  13 °C 29.9in /  1011.5hPa NW 0.9mph /  1.4km/h 3mph /  4.8km/h 89% 0in /  0.0mm 246 W/m2
08:33 58.8 °F /  14.9 °C 55.2 °F /  12.9 °C 29.9in /  1011.5hPa NW 0.9mph /  1.4km/h 3mph /  4.8km/h 88% 0in /  0.0mm 265 W/m2
08:38 59.4 °F /  15.2 °C 55.8 °F /  13.2 °C 29.9in /  1011.5hPa NW 0.9mph /  1.4km/h 7mph /  11.3km/h 88% 0in /  0.0mm 237 W/m2
08:43 59.7 °F /  15.4 °C 55.8 °F /  13.2 °C 29.9in /  1011.5hPa SW 4.9mph /  7.9km/h 5mph /  8km/h 87% 0in /  0.0mm 221 W/m2
08:48 60.3 °F /  15.7 °C 56.3 °F /  13.5 °C 29.9in /  1011.5hPa Calm   8mph /  12.9km/h 87% 0in /  0.0mm 206 W/m2
08:53 60.4 °F /  15.8 °C 56.3 °F /  13.5 °C 29.9in /  1011.5hPa West 6mph /  9.7km/h 12mph /  19.3km/h 86% 0in /  0.0mm 278 W/m2
08:58 60.6 °F /  15.9 °C 56.1 °F /  13.4 °C 29.9in /  1011.5hPa NW 2.9mph /  4.7km/h 3mph /  4.8km/h 85% 0in /  0.0mm 253 W/m2
09:03 60.8 °F /  16 °C 56.3 °F /  13.5 °C 29.9in /  1011.2hPa Calm   3mph /  4.8km/h 85% 0in /  0.0mm 243 W/m2
09:08 61 °F /  16.1 °C 56.1 °F /  13.4 °C 29.9in /  1011.2hPa NE 0.9mph /  1.4km/h 2mph /  3.2km/h 84% 0in /  0.0mm 294 W/m2
09:13 61 °F /  16.1 °C 56.1 °F /  13.4 °C 29.9in /  1011.5hPa SW 2mph /  3.2km/h 7mph /  11.3km/h 84% 0in /  0.0mm 206 W/m2
09:18 60.8 °F /  16 °C 55.9 °F /  13.3 °C 29.9in /  1011.2hPa WNW 0.9mph /  1.4km/h 4mph /  6.4km/h 84% 0in /  0.0mm 190 W/m2
09:23 60.4 °F /  15.8 °C 55.9 °F /  13.3 °C 29.9in /  1011.5hPa Calm   6mph /  9.7km/h 85% 0in /  0.0mm 227 W/m2
09:28 60.4 °F /  15.8 °C 56.3 °F /  13.5 °C 29.9in /  1011.5hPa NW 2.9mph /  4.7km/h 5mph /  8km/h 86% 0in /  0.0mm 251 W/m2
09:33 60.4 °F /  15.8 °C 55.9 °F /  13.3 °C 29.9in /  1011.2hPa North 2mph /  3.2km/h 4mph /  6.4km/h 85% 0in /  0.0mm 220 W/m2
09:38 60.6 °F /  15.9 °C 56.5 °F /  13.6 °C 29.9in /  1011.5hPa WNW 4mph /  6.4km/h 4mph /  6.4km/h 86% 0in /  0.0mm 211 W/m2
09:43 60.6 °F /  15.9 °C 55.8 °F /  13.2 °C 29.9in /  1011.5hPa NW 0.9mph /  1.4km/h 5mph /  8km/h 84% 0in /  0.0mm 195 W/m2
09:48 60.6 °F /  15.9 °C 56.1 °F /  13.4 °C 29.9in /  1011.5hPa ENE 2mph /  3.2km/h 3mph /  4.8km/h 85% 0in /  0.0mm 185 W/m2
09:53 60.6 °F /  15.9 °C 56.1 °F /  13.4 °C 29.9in /  1011.5hPa ENE 0.9mph /  1.4km/h 3mph /  4.8km/h 85% 0in /  0.0mm 179 W/m2
09:58 60.8 °F /  16 °C 56.3 °F /  13.5 °C 29.9in /  1011.5hPa NNE 0.9mph /  1.4km/h 3mph /  4.8km/h 85% 0in /  0.0mm 190 W/m2
10:03 61 °F /  16.1 °C 56.1 °F /  13.4 °C 29.9in /  1011.5hPa SW 0.9mph /  1.4km/h 6mph /  9.7km/h 84% 0in /  0.0mm 179 W/m2
10:08 61 °F /  16.1 °C 56.5 °F /  13.6 °C 29.9in /  1011.5hPa West 8.1mph /  13km/h 8mph /  12.9km/h 85% 0in /  0.0mm 163 W/m2
10:13 60.8 °F /  16 °C 56.3 °F /  13.5 °C 29.9in /  1011.5hPa NW 2.9mph /  4.7km/h 6mph /  9.7km/h 85% 0in /  0.0mm 162 W/m2
10:18 60.6 °F /  15.9 °C 55.8 °F /  13.2 °C 29.9in /  1011.5hPa NNW 2.9mph /  4.7km/h 4mph /  6.4km/h 84% 0in /  0.0mm 181 W/m2
10:23 60.8 °F /  16 °C 56.3 °F /  13.5 °C 29.9in /  1011.5hPa SW 0.9mph /  1.4km/h 4mph /  6.4km/h 85% 0in /  0.0mm 190 W/m2
10:28 60.6 °F /  15.9 °C 56.5 °F /  13.6 °C 29.9in /  1011.5hPa West 2mph /  3.2km/h 5mph /  8km/h 86% 0in /  0.0mm 158 W/m2
10:33 60.4 °F /  15.8 °C 56.8 °F /  13.8 °C 29.9in /  1011.5hPa NNW 0.9mph /  1.4km/h 2mph /  3.2km/h 88% 0in /  0.0mm 130 W/m2
10:38 60.3 °F /  15.7 °C 57 °F /  13.9 °C 29.9in /  1011.5hPa Calm   3mph /  4.8km/h 89% 0in /  0.0mm 114 W/m2
10:43 60.1 °F /  15.6 °C 57.2 °F /  14 °C 29.9in /  1011.5hPa NW 0.9mph /  1.4km/h 2mph /  3.2km/h 90% 0in /  0.0mm 93 W/m2
10:48 59.7 °F /  15.4 °C 56.8 °F /  13.8 °C 29.9in /  1011.9hPa NW 2.9mph /  4.7km/h 3mph /  4.8km/h 90% 0in /  0.0mm 118 W/m2
10:53 59.5 °F /  15.3 °C 56.7 °F /  13.7 °C 29.9in /  1011.9hPa West 0.9mph /  1.4km/h 2mph /  3.2km/h 90% 0in /  0.0mm 109 W/m2
10:58 59.5 °F /  15.3 °C 56.8 °F /  13.8 °C 29.9in /  1011.9hPa WNW 4mph /  6.4km/h 6mph /  9.7km/h 91% 0in /  0.0mm 121 W/m2
11:03 59.4 °F /  15.2 °C 57 °F /  13.9 °C 29.9in /  1011.5hPa WNW 0.9mph /  1.4km/h 3mph /  4.8km/h 92% 0in /  0.0mm 178 W/m2
11:08 59.5 °F /  15.3 °C 57.2 °F /  14 °C 29.9in /  1011.5hPa Calm   6mph /  9.7km/h 92% 0.01in /  0.2mm 195 W/m2
11:13 59.5 °F /  15.3 °C 57.2 °F /  14 °C 29.9in /  1011.5hPa NNW 0.9mph /  1.4km/h 4mph /  6.4km/h 92% 0.01in /  0.2mm 172 W/m2
11:18 59.5 °F /  15.3 °C 57.2 °F /  14 °C 29.9in /  1011.9hPa WNW 2.9mph /  4.7km/h 7mph /  11.3km/h 92% 0.01in /  0.2mm 146 W/m2
11:23 59.5 °F /  15.3 °C 57.2 °F /  14 °C 29.9in /  1011.9hPa Calm   3mph /  4.8km/h 92% 0.01in /  0.2mm 185 W/m2
11:28 59.7 °F /  15.4 °C 57.4 °F /  14.1 °C 29.9in /  1011.9hPa NNE 0.9mph /  1.4km/h 7mph /  11.3km/h 92% 0.01in /  0.2mm 156 W/m2
11:33 59.7 °F /  15.4 °C 57 °F /  13.9 °C 29.9in /  1011.9hPa East 0.9mph /  1.4km/h 2mph /  3.2km/h 91% 0.01in /  0.2mm 142 W/m2
11:38 59.7 °F /  15.4 °C 57.4 °F /  14.1 °C 29.9in /  1011.9hPa WNW 2mph /  3.2km/h 4mph /  6.4km/h 92% 0.01in /  0.2mm 121 W/m2
11:43 59.7 °F /  15.4 °C 57.4 °F /  14.1 °C 29.9in /  1011.9hPa East 0.9mph /  1.4km/h 2mph /  3.2km/h 92% 0.01in /  0.2mm 97 W/m2
11:48 59.5 °F /  15.3 °C 57.2 °F /  14 °C 29.9in /  1011.9hPa West 2mph /  3.2km/h 4mph /  6.4km/h 92% 0.01in /  0.2mm 70 W/m2
11:53 59.4 °F /  15.2 °C 57 °F /  13.9 °C 29.9in /  1011.9hPa WNW 2mph /  3.2km/h 4mph /  6.4km/h 92% 0.01in /  0.2mm 76 W/m2
11:58 59.4 °F /  15.2 °C 57 °F /  13.9 °C 29.9in /  1011.9hPa WNW 0.9mph /  1.4km/h 2mph /  3.2km/h 92% 0.01in /  0.2mm 93 W/m2
12:03 59.4 °F /  15.2 °C 57 °F /  13.9 °C 29.9in /  1011.9hPa Calm   2mph /  3.2km/h 92% 0.01in /  0.2mm 77 W/m2
12:08 59.4 °F /  15.2 °C 57.4 °F /  14.1 °C 29.9in /  1011.9hPa Calm   1mph /  1.6km/h 93% 0.01in /  0.2mm 90 W/m2
12:13 59.4 °F /  15.2 °C 57.4 °F /  14.1 °C 29.9in /  1011.9hPa Calm   1mph /  1.6km/h 93% 0.01in /  0.2mm 90 W/m2
12:18 59.4 °F /  15.2 °C 57.4 °F /  14.1 °C 29.9in /  1011.9hPa NNW 0.9mph /  1.4km/h 4mph /  6.4km/h 93% 0.01in /  0.2mm 100 W/m2
12:23 59.2 °F /  15.1 °C 57.2 °F /  14 °C 29.9in /  1011.9hPa North 0.9mph /  1.4km/h 1mph /  1.6km/h 93% 0.01in /  0.2mm 95 W/m2
12:28 59.4 °F /  15.2 °C 57.4 °F /  14.1 °C 29.9in /  1011.9hPa Calm   4mph /  6.4km/h 93% 0.01in /  0.2mm 120 W/m2
12:33 59.5 °F /  15.3 °C 57.6 °F /  14.2 °C 29.9in /  1011.9hPa Calm   1mph /  1.6km/h 93% 0.01in /  0.2mm 79 W/m2
12:38 59.5 °F /  15.3 °C 57.6 °F /  14.2 °C 29.9in /  1011.9hPa Calm   1mph /  1.6km/h 93% 0.02in /  0.5mm 77 W/m2
12:43 59.5 °F /  15.3 °C 57.6 °F /  14.2 °C 29.9in /  1011.9hPa West 2mph /  3.2km/h 3mph /  4.8km/h 93% 0.04in /  1.0mm 70 W/m2
12:48 59.4 °F /  15.2 °C 57.4 °F /  14.1 °C 29.9in /  1011.9hPa NNW 0.9mph /  1.4km/h 2mph /  3.2km/h 93% 0.06in /  1.5mm 46 W/m2
12:53 59.2 °F /  15.1 °C 57.2 °F /  14 °C 29.9in /  1011.9hPa Calm   2mph /  3.2km/h 93% 0.09in /  2.3mm 109 W/m2
12:58 59.2 °F /  15.1 °C 57.2 °F /  14 °C 29.9in /  1011.9hPa Calm     93% 0.11in /  2.8mm 156 W/m2
13:03 59.4 °F /  15.2 °C 57.6 °F /  14.2 °C 29.9in /  1011.9hPa Calm     94% 0.13in /  3.3mm 176 W/m2
13:08 59.4 °F /  15.2 °C 57.6 °F /  14.2 °C 29.9in /  1011.9hPa NW 2mph /  3.2km/h 2mph /  3.2km/h 94% 0.14in /  3.6mm 153 W/m2
13:13 59.5 °F /  15.3 °C 57.7 °F /  14.3 °C 29.9in /  1011.9hPa West 0.9mph /  1.4km/h 2mph /  3.2km/h 94% 0.15in /  3.8mm 121 W/m2
13:18 59.5 °F /  15.3 °C 57.7 °F /  14.3 °C 29.9in /  1011.9hPa Calm   1mph /  1.6km/h 94% 0.16in /  4.1mm 149 W/m2
13:23 59.7 °F /  15.4 °C 57.9 °F /  14.4 °C 29.9in /  1011.9hPa NW 0.9mph /  1.4km/h 2mph /  3.2km/h 94% 0.17in /  4.3mm 155 W/m2
13:28 59.5 °F /  15.3 °C 57.6 °F /  14.2 °C 29.9in /  1011.9hPa West 6.9mph /  11.1km/h 8mph /  12.9km/h 93% 0.17in /  4.3mm 151 W/m2
13:33 59.4 °F /  15.2 °C 57 °F /  13.9 °C 29.9in /  1011.9hPa WNW 2.9mph /  4.7km/h 4mph /  6.4km/h 92% 0.17in /  4.3mm 156 W/m2
13:38 59.4 °F /  15.2 °C 57 °F /  13.9 °C 29.9in /  1011.9hPa WNW 2mph /  3.2km/h 8mph /  12.9km/h 92% 0.16in /  4.1mm 169 W/m2
13:43 59.4 °F /  15.2 °C 57 °F /  13.9 °C 29.9in /  1011.9hPa WNW 2mph /  3.2km/h 3mph /  4.8km/h 92% 0.13in /  3.3mm 181 W/m2
13:48 59.5 °F /  15.3 °C 57.6 °F /  14.2 °C 29.9in /  1011.9hPa WNW 2.9mph /  4.7km/h 3mph /  4.8km/h 93% 0.11in /  2.8mm 186 W/m2
13:53 59.5 °F /  15.3 °C 57.2 °F /  14 °C 29.9in /  1011.9hPa Calm   3mph /  4.8km/h 92% 0.09in /  2.3mm 176 W/m2
13:58 59.7 °F /  15.4 °C 57.4 °F /  14.1 °C 29.9in /  1011.9hPa West 0.9mph /  1.4km/h 2mph /  3.2km/h 92% 0.07in /  1.8mm 174 W/m2
14:03 59.9 °F /  15.5 °C 57.6 °F /  14.2 °C 29.9in /  1011.9hPa West 2mph /  3.2km/h 5mph /  8km/h 92% 0.04in /  1.0mm 199 W/m2
14:08 60.1 °F /  15.6 °C 57.7 °F /  14.3 °C 29.9in /  1011.9hPa WSW 0.9mph /  1.4km/h 4mph /  6.4km/h 92% 0.03in /  0.8mm 207 W/m2
14:13 60.3 °F /  15.7 °C 57.9 °F /  14.4 °C 29.9in /  1011.9hPa Calm   1mph /  1.6km/h 92% 0.02in /  0.5mm 220 W/m2
14:18 60.4 °F /  15.8 °C 58.5 °F /  14.7 °C 29.9in /  1011.9hPa West 0.9mph /  1.4km/h 4mph /  6.4km/h 93% 0.02in /  0.5mm 162 W/m2
14:23 60.6 °F /  15.9 °C 58.3 °F /  14.6 °C 29.9in /  1011.9hPa West 0.9mph /  1.4km/h 3mph /  4.8km/h 92% 0.02in /  0.5mm 84 W/m2
14:28 60.6 °F /  15.9 °C 58.3 °F /  14.6 °C 29.9in /  1011.9hPa WNW 0.9mph /  1.4km/h 3mph /  4.8km/h 92% 0.02in /  0.5mm 118 W/m2
14:33 60.6 °F /  15.9 °C 58.3 °F /  14.6 °C 29.9in /  1011.9hPa West 2.9mph /  4.7km/h 9mph /  14.5km/h 92% 0.02in /  0.5mm 204 W/m2
14:38 60.4 °F /  15.8 °C 57.7 °F /  14.3 °C 29.9in /  1011.9hPa West 8.1mph /  13km/h 9mph /  14.5km/h 91% 0.02in /  0.5mm 309 W/m2
14:44 60.6 °F /  15.9 °C 57.9 °F /  14.4 °C 29.9in /  1011.9hPa WNW 4mph /  6.4km/h 8mph /  12.9km/h 91% 0.02in /  0.5mm 357 W/m2
14:49 61 °F /  16.1 °C 58.3 °F /  14.6 °C 29.9in /  1011.9hPa West 2mph /  3.2km/h 6mph /  9.7km/h 91% 0.02in /  0.5mm 359 W/m2
14:54 61.2 °F /  16.2 °C 58.3 °F /  14.6 °C 29.9in /  1011.9hPa WNW 2.9mph /  4.7km/h 12mph /  19.3km/h 90% 0.01in /  0.2mm 364 W/m2
14:59 61.2 °F /  16.2 °C 58.3 °F /  14.6 °C 29.9in /  1011.9hPa NW 4mph /  6.4km/h 8mph /  12.9km/h 90% 0.01in /  0.2mm 227 W/m2
15:04 61.2 °F /  16.2 °C 58.3 °F /  14.6 °C 29.9in /  1011.9hPa NW 2mph /  3.2km/h 7mph /  11.3km/h 90% 0.01in /  0.2mm 236 W/m2
15:09 61.2 °F /  16.2 °C 58.3 °F /  14.6 °C 29.9in /  1011.9hPa WNW 4.9mph /  7.9km/h 9mph /  14.5km/h 90% 0.01in /  0.2mm 345 W/m2
15:14 61 °F /  16.1 °C 58.1 °F /  14.5 °C 29.9in /  1012.2hPa WNW 8.1mph /  13km/h 12mph /  19.3km/h 90% 0.01in /  0.2mm 302 W/m2
15:19 60.6 °F /  15.9 °C 57.4 °F /  14.1 °C 29.9in /  1012.2hPa WSW 8.1mph /  13km/h 9mph /  14.5km/h 89% 0.01in /  0.2mm 255 W/m2
15:24 60.3 °F /  15.7 °C 56.7 °F /  13.7 °C 29.9in /  1012.2hPa West 6.9mph /  11.1km/h 11mph /  17.7km/h 88% 0in /  0.0mm 234 W/m2
15:29 60.1 °F /  15.6 °C 56.5 °F /  13.6 °C 29.9in /  1012.2hPa West 10.1mph /  16.3km/h 10mph /  16.1km/h 88% 0in /  0.0mm 267 W/m2
15:34 60.1 °F /  15.6 °C 56.5 °F /  13.6 °C 29.9in /  1012.2hPa West 8.9mph /  14.3km/h 13mph /  20.9km/h 88% 0in /  0.0mm 276 W/m2
15:39 60.1 °F /  15.6 °C 56.1 °F /  13.4 °C 29.9in /  1012.2hPa West 6.9mph /  11.1km/h 10mph /  16.1km/h 87% 0in /  0.0mm 299 W/m2
15:44 60.1 °F /  15.6 °C 56.5 °F /  13.6 °C 29.9in /  1012.2hPa West 8.1mph /  13km/h 13mph /  20.9km/h 88% 0in /  0.0mm 278 W/m2
15:49 60.3 °F /  15.7 °C 56.7 °F /  13.7 °C 29.9in /  1012.2hPa West 8.9mph /  14.3km/h 10mph /  16.1km/h 88% 0in /  0.0mm 308 W/m2
15:54 60.3 °F /  15.7 °C 56.3 °F /  13.5 °C 29.9in /  1012.2hPa WNW 2.9mph /  4.7km/h 9mph /  14.5km/h 87% 0in /  0.0mm 339 W/m2
15:59 60.3 °F /  15.7 °C 56.1 °F /  13.4 °C 29.9in /  1012.2hPa West 8.9mph /  14.3km/h 13mph /  20.9km/h 86% 0in /  0.0mm 471 W/m2
16:04 60.6 °F /  15.9 °C 56.7 °F /  13.7 °C 29.9in /  1012.2hPa West 2.9mph /  4.7km/h 10mph /  16.1km/h 87% 0in /  0.0mm 390 W/m2
16:09 60.8 °F /  16 °C 56.3 °F /  13.5 °C 29.9in /  1012.2hPa West 2.9mph /  4.7km/h 10mph /  16.1km/h 85% 0in /  0.0mm 489 W/m2
16:14 61.2 °F /  16.2 °C 57 °F /  13.9 °C 29.9in /  1012.2hPa WNW 6.9mph /  11.1km/h 10mph /  16.1km/h 86% 0in /  0.0mm 427 W/m2
16:19 61.2 °F /  16.2 °C 56.3 °F /  13.5 °C 29.9in /  1012.5hPa West 6.9mph /  11.1km/h 12mph /  19.3km/h 84% 0in /  0.0mm 420 W/m2
16:24 61.3 °F /  16.3 °C 56.8 °F /  13.8 °C 29.9in /  1012.5hPa NW 4.9mph /  7.9km/h 10mph /  16.1km/h 85% 0in /  0.0mm 401 W/m2
16:29 61.5 °F /  16.4 °C 56.7 °F /  13.7 °C 29.9in /  1012.5hPa NW 4mph /  6.4km/h 12mph /  19.3km/h 84% 0in /  0.0mm 431 W/m2
16:34 61.5 °F /  16.4 °C 55.9 °F /  13.3 °C 29.9in /  1012.5hPa WSW 4mph /  6.4km/h 14mph /  22.5km/h 82% 0in /  0.0mm 422 W/m2
16:39 61.9 °F /  16.6 °C 56.7 °F /  13.7 °C 29.9in /  1012.5hPa WNW 8.9mph /  14.3km/h 12mph /  19.3km/h 83% 0in /  0.0mm 294 W/m2
16:44 61.7 °F /  16.5 °C 55.8 °F /  13.2 °C 29.9in /  1012.9hPa West 8.9mph /  14.3km/h 12mph /  19.3km/h 81% 0in /  0.0mm 237 W/m2
16:49 61.3 °F /  16.3 °C 55.8 °F /  13.2 °C 29.9in /  1012.9hPa WSW 8.9mph /  14.3km/h 10mph /  16.1km/h 82% 0in /  0.0mm 271 W/m2
16:54 61 °F /  16.1 °C 55.8 °F /  13.2 °C 29.9in /  1012.9hPa WNW 2.9mph /  4.7km/h 13mph /  20.9km/h 83% 0in /  0.0mm 155 W/m2
16:59 60.4 °F /  15.8 °C 55.6 °F /  13.1 °C 29.9in /  1012.9hPa WSW 10.1mph /  16.3km/h 16mph /  25.7km/h 84% 0in /  0.0mm 176 W/m2
17:04 59.7 °F /  15.4 °C 55.6 °F /  13.1 °C 29.9in /  1012.9hPa West 6.9mph /  11.1km/h 8mph /  12.9km/h 86% 0in /  0.0mm 148 W/m2
17:09 59.2 °F /  15.1 °C 55.6 °F /  13.1 °C 29.9in /  1012.9hPa West 12.1mph /  19.5km/h 16mph /  25.7km/h 88% 0in /  0.0mm 105 W/m2
17:14 58.8 °F /  14.9 °C 55.6 °F /  13.1 °C 29.9in /  1013.2hPa WNW 4mph /  6.4km/h 12mph /  19.3km/h 89% 0in /  0.0mm 83 W/m2
17:19 58.5 °F /  14.7 °C 55.2 °F /  12.9 °C 29.9in /  1013.2hPa WNW 4mph /  6.4km/h 11mph /  17.7km/h 89% 0in /  0.0mm 144 W/m2
17:24 58.3 °F /  14.6 °C 55 °F /  12.8 °C 29.9in /  1012.9hPa West 8.1mph /  13km/h 9mph /  14.5km/h 89% 0in /  0.0mm 178 W/m2
17:29 58.1 °F /  14.5 °C 54.9 °F /  12.7 °C 29.9in /  1013.2hPa West 4mph /  6.4km/h 11mph /  17.7km/h 89% 0in /  0.0mm 190 W/m2
17:34 58.3 °F /  14.6 °C 55.4 °F /  13 °C 29.9in /  1012.9hPa West 6mph /  9.7km/h 9mph /  14.5km/h 90% 0in /  0.0mm 225 W/m2
17:39 58.5 °F /  14.7 °C 55.6 °F /  13.1 °C 29.9in /  1012.9hPa West 2.9mph /  4.7km/h 11mph /  17.7km/h 90% 0in /  0.0mm 223 W/m2
17:44 58.6 °F /  14.8 °C 55.4 °F /  13 °C 29.9in /  1012.9hPa WNW 8.1mph /  13km/h 10mph /  16.1km/h 89% 0in /  0.0mm 211 W/m2
17:49 58.8 °F /  14.9 °C 55.6 °F /  13.1 °C 29.9in /  1012.9hPa SW 4mph /  6.4km/h 7mph /  11.3km/h 89% 0in /  0.0mm 214 W/m2
17:54 59.2 °F /  15.1 °C 55.6 °F /  13.1 °C 29.9in /  1012.9hPa WSW 2.9mph /  4.7km/h 9mph /  14.5km/h 88% 0in /  0.0mm 199 W/m2
17:59 59.4 °F /  15.2 °C 55.8 °F /  13.2 °C 29.9in /  1012.9hPa West 4mph /  6.4km/h 12mph /  19.3km/h 88% 0in /  0.0mm 176 W/m2
18:04 59.4 °F /  15.2 °C 55.8 °F /  13.2 °C 29.9in /  1013.2hPa West 6.9mph /  11.1km/h 11mph /  17.7km/h 88% 0in /  0.0mm 167 W/m2
18:09 59.4 °F /  15.2 °C 55.2 °F /  12.9 °C 29.9in /  1012.9hPa West 6.9mph /  11.1km/h 10mph /  16.1km/h 86% 0in /  0.0mm 134 W/m2
18:14 59.5 °F /  15.3 °C 55.4 °F /  13 °C 29.9in /  1013.2hPa NW 6mph /  9.7km/h 8mph /  12.9km/h 86% 0in /  0.0mm 137 W/m2
18:19 59.5 °F /  15.3 °C 55 °F /  12.8 °C 29.9in /  1013.2hPa West 6mph /  9.7km/h 9mph /  14.5km/h 85% 0in /  0.0mm 130 W/m2
18:24 59.5 °F /  15.3 °C 55.4 °F /  13 °C 29.9in /  1013.2hPa WNW 4mph /  6.4km/h 7mph /  11.3km/h 86% 0in /  0.0mm 95 W/m2
18:29 59.4 °F /  15.2 °C 55.2 °F /  12.9 °C 29.9in /  1013.2hPa WSW 4mph /  6.4km/h 10mph /  16.1km/h 86% 0in /  0.0mm 83 W/m2
18:34 59.4 °F /  15.2 °C 55.2 °F /  12.9 °C 29.9in /  1013.2hPa WNW 8.1mph /  13km/h 11mph /  17.7km/h 86% 0in /  0.0mm 98 W/m2
18:39 59.2 °F /  15.1 °C 55 °F /  12.8 °C 29.9in /  1013.2hPa West 6mph /  9.7km/h 10mph /  16.1km/h 86% 0in /  0.0mm 97 W/m2
18:44 59 °F /  15 °C 55.2 °F /  12.9 °C 29.9in /  1013.2hPa West 2.9mph /  4.7km/h 11mph /  17.7km/h 87% 0in /  0.0mm 90 W/m2
18:49 58.8 °F /  14.9 °C 54.7 °F /  12.6 °C 29.9in /  1013.2hPa NNW 4mph /  6.4km/h 11mph /  17.7km/h 86% 0in /  0.0mm 74 W/m2
18:54 58.8 °F /  14.9 °C 54.7 °F /  12.6 °C 29.9in /  1013.2hPa West 2.9mph /  4.7km/h 7mph /  11.3km/h 86% 0in /  0.0mm 77 W/m2
18:59 58.8 °F /  14.9 °C 54.7 °F /  12.6 °C 29.9in /  1013.2hPa West 2.9mph /  4.7km/h 9mph /  14.5km/h 86% 0in /  0.0mm 72 W/m2
19:04 58.6 °F /  14.8 °C 54.9 °F /  12.7 °C 29.9in /  1013.2hPa WSW 2.9mph /  4.7km/h 9mph /  14.5km/h 87% 0in /  0.0mm 60 W/m2
19:09 58.5 °F /  14.7 °C 55.2 °F /  12.9 °C 29.9in /  1013.5hPa WSW 4mph /  6.4km/h 8mph /  12.9km/h 89% 0in /  0.0mm 46 W/m2
19:14 58.1 °F /  14.5 °C 54.9 °F /  12.7 °C 29.9in /  1013.5hPa West 6.9mph /  11.1km/h 10mph /  16.1km/h 89% 0in /  0.0mm 30 W/m2
19:19 57.7 °F /  14.3 °C 54.9 °F /  12.7 °C 29.9in /  1013.5hPa West 6mph /  9.7km/h 9mph /  14.5km/h 90% 0in /  0.0mm 49 W/m2
19:24 57.6 °F /  14.2 °C 55 °F /  12.8 °C 29.9in /  1013.5hPa West 11mph /  17.7km/h 11mph /  17.7km/h 91% 0in /  0.0mm 32 W/m2
19:29 57.2 °F /  14 °C 54.9 °F /  12.7 °C 29.9in /  1013.5hPa West 6.9mph /  11.1km/h 8mph /  12.9km/h 92% 0.01in /  0.2mm 37 W/m2
19:34 57 °F /  13.9 °C 54.7 °F /  12.6 °C 29.9in /  1013.5hPa WNW 4.9mph /  7.9km/h 6mph /  9.7km/h 92% 0.01in /  0.2mm 39 W/m2
19:39 56.8 °F /  13.8 °C 54.5 °F /  12.5 °C 29.9in /  1013.5hPa WNW 8.1mph /  13km/h 9mph /  14.5km/h 92% 0.02in /  0.5mm 40 W/m2
19:44 56.8 °F /  13.8 °C 54.9 °F /  12.7 °C 29.9in /  1013.5hPa WSW 11mph /  17.7km/h 11mph /  17.7km/h 93% 0.02in /  0.5mm 46 W/m2
19:49 56.7 °F /  13.7 °C 54.7 °F /  12.6 °C 29.9in /  1013.5hPa WSW 6mph /  9.7km/h 11mph /  17.7km/h 93% 0.02in /  0.5mm 44 W/m2
19:54 56.7 °F /  13.7 °C 54.7 °F /  12.6 °C 29.9in /  1013.5hPa WNW 2.9mph /  4.7km/h 9mph /  14.5km/h 93% 0.02in /  0.5mm 44 W/m2
19:59 56.8 °F /  13.8 °C 54.9 °F /  12.7 °C 29.9in /  1013.5hPa West 4mph /  6.4km/h 11mph /  17.7km/h 93% 0.02in /  0.5mm 42 W/m2
20:04 56.8 °F /  13.8 °C 54.9 °F /  12.7 °C 29.9in /  1013.5hPa WNW 2.9mph /  4.7km/h 7mph /  11.3km/h 93% 0.02in /  0.5mm 39 W/m2
20:09 56.8 °F /  13.8 °C 54.9 °F /  12.7 °C 29.9in /  1013.5hPa West 2.9mph /  4.7km/h 7mph /  11.3km/h 93% 0.02in /  0.5mm 35 W/m2
20:14 56.8 °F /  13.8 °C 54.9 °F /  12.7 °C 29.9in /  1013.9hPa WSW 4mph /  6.4km/h 8mph /  12.9km/h 93% 0.02in /  0.5mm 32 W/m2
20:19 56.8 °F /  13.8 °C 54.9 °F /  12.7 °C 29.9in /  1013.9hPa West 2.9mph /  4.7km/h 9mph /  14.5km/h 93% 0.02in /  0.5mm 21 W/m2
20:24 56.8 °F /  13.8 °C 54.9 °F /  12.7 °C 29.9in /  1013.9hPa WNW 2.9mph /  4.7km/h 7mph /  11.3km/h 93% 0.02in /  0.5mm 30 W/m2
20:29 56.8 °F /  13.8 °C 54.9 °F /  12.7 °C 29.9in /  1013.9hPa West 6mph /  9.7km/h 9mph /  14.5km/h 93% 0.01in /  0.2mm 25 W/m2
20:34 56.8 °F /  13.8 °C 54.9 °F /  12.7 °C 29.9in /  1013.9hPa West 6mph /  9.7km/h 8mph /  12.9km/h 93% 0.01in /  0.2mm 16 W/m2
20:39 56.8 °F /  13.8 °C 54.9 °F /  12.7 °C 29.9in /  1013.9hPa West 4mph /  6.4km/h 10mph /  16.1km/h 93% 0in /  0.0mm 14 W/m2
20:44 56.7 °F /  13.7 °C 54.7 °F /  12.6 °C 29.9in /  1013.9hPa WSW 4mph /  6.4km/h 9mph /  14.5km/h 93% 0in /  0.0mm 19 W/m2
20:49 56.7 °F /  13.7 °C 54.7 °F /  12.6 °C 29.9in /  1013.9hPa West 2.9mph /  4.7km/h 7mph /  11.3km/h 93% 0in /  0.0mm 14 W/m2
20:54 56.5 °F /  13.6 °C 54.5 °F /  12.5 °C 29.9in /  1013.9hPa West 6.9mph /  11.1km/h 7mph /  11.3km/h 93% 0in /  0.0mm 12 W/m2
20:59 56.5 °F /  13.6 °C 54.5 °F /  12.5 °C 29.9in /  1013.9hPa WNW 2.9mph /  4.7km/h 6mph /  9.7km/h 93% 0in /  0.0mm 11 W/m2
21:04 56.5 °F /  13.6 °C 54.9 °F /  12.7 °C 29.9in /  1013.9hPa WNW 4mph /  6.4km/h 4mph /  6.4km/h 94% 0.01in /  0.2mm 23 W/m2
21:09 56.3 °F /  13.5 °C 54.7 °F /  12.6 °C 29.9in /  1013.9hPa West 4mph /  6.4km/h 7mph /  11.3km/h 94% 0.01in /  0.2mm 18 W/m2
21:14 56.3 °F /  13.5 °C 54.7 °F /  12.6 °C 30in /  1014.2hPa SSW 4mph /  6.4km/h 5mph /  8km/h 94% 0.01in /  0.2mm 12 W/m2
21:19 56.1 °F /  13.4 °C 54.5 °F /  12.5 °C 30in /  1014.2hPa West 4mph /  6.4km/h 8mph /  12.9km/h 94% 0.01in /  0.2mm 9 W/m2
21:24 56.1 °F /  13.4 °C 54.1 °F /  12.3 °C 30in /  1014.2hPa WNW 8.1mph /  13km/h 10mph /  16.1km/h 93% 0.01in /  0.2mm 7 W/m2
21:29 56.1 °F /  13.4 °C 54.1 °F /  12.3 °C 30in /  1014.2hPa NW 4mph /  6.4km/h 11mph /  17.7km/h 93% 0.01in /  0.2mm 0 W/m2
21:34 56.1 °F /  13.4 °C 53.8 °F /  12.1 °C 30in /  1014.2hPa West 10.1mph /  16.3km/h 11mph /  17.7km/h 92% 0.01in /  0.2mm 0 W/m2
21:39 56.1 °F /  13.4 °C 53.8 °F /  12.1 °C 30in /  1014.6hPa West 2mph /  3.2km/h 8mph /  12.9km/h 92% 0.01in /  0.2mm 0 W/m2
21:44 56.1 °F /  13.4 °C 53.8 °F /  12.1 °C 30in /  1014.6hPa WNW 4mph /  6.4km/h 8mph /  12.9km/h 92% 0.01in /  0.2mm 0 W/m2
21:49 56.1 °F /  13.4 °C 53.8 °F /  12.1 °C 30in /  1014.6hPa WNW 4mph /  6.4km/h 6mph /  9.7km/h 92% 0.01in /  0.2mm 0 W/m2
21:54 56.1 °F /  13.4 °C 53.8 °F /  12.1 °C 30in /  1014.6hPa WNW 2.9mph /  4.7km/h 6mph /  9.7km/h 92% 0.01in /  0.2mm 0 W/m2
21:59 56.1 °F /  13.4 °C 53.8 °F /  12.1 °C 30in /  1014.6hPa West 2.9mph /  4.7km/h 7mph /  11.3km/h 92% 0in /  0.0mm 0 W/m2
22:04 55.9 °F /  13.3 °C 53.6 °F /  12 °C 30in /  1014.6hPa West 4mph /  6.4km/h 6mph /  9.7km/h 92% 0in /  0.0mm 0 W/m2
22:09 55.9 °F /  13.3 °C 53.6 °F /  12 °C 30in /  1014.9hPa WNW 2mph /  3.2km/h 7mph /  11.3km/h 92% 0in /  0.0mm 0 W/m2
22:14 55.9 °F /  13.3 °C 53.6 °F /  12 °C 30in /  1014.9hPa WSW 2mph /  3.2km/h 8mph /  12.9km/h 92% 0in /  0.0mm 0 W/m2
22:19 55.9 °F /  13.3 °C 54 °F /  12.2 °C 30in /  1014.9hPa WSW 2.9mph /  4.7km/h 3mph /  4.8km/h 93% 0in /  0.0mm 0 W/m2
22:24 55.9 °F /  13.3 °C 54 °F /  12.2 °C 30in /  1014.9hPa SW 2.9mph /  4.7km/h 3mph /  4.8km/h 93% 0in /  0.0mm 0 W/m2
22:29 55.9 °F /  13.3 °C 54 °F /  12.2 °C 30in /  1014.9hPa West 4mph /  6.4km/h 5mph /  8km/h 93% 0in /  0.0mm 0 W/m2
22:34 55.8 °F /  13.2 °C 53.8 °F /  12.1 °C 30in /  1014.9hPa WNW 2.9mph /  4.7km/h 5mph /  8km/h 93% 0in /  0.0mm 0 W/m2
22:39 55.8 °F /  13.2 °C 53.8 °F /  12.1 °C 30in /  1014.9hPa WNW 2.9mph /  4.7km/h 4mph /  6.4km/h 93% 0in /  0.0mm 0 W/m2
22:44 55.8 °F /  13.2 °C 53.8 °F /  12.1 °C 30in /  1014.9hPa WNW 2mph /  3.2km/h 4mph /  6.4km/h 93% 0in /  0.0mm 0 W/m2
22:49 55.8 °F /  13.2 °C 53.8 °F /  12.1 °C 30in /  1014.9hPa WNW 2mph /  3.2km/h 3mph /  4.8km/h 93% 0in /  0.0mm 0 W/m2
22:54 55.8 °F /  13.2 °C 53.8 °F /  12.1 °C 30in /  1014.9hPa West 2.9mph /  4.7km/h 3mph /  4.8km/h 93% 0in /  0.0mm 0 W/m2
22:59 55.9 °F /  13.3 °C 54 °F /  12.2 °C 30in /  1014.9hPa WSW 2.9mph /  4.7km/h 5mph /  8km/h 93% 0in /  0.0mm 0 W/m2
23:04 55.9 °F /  13.3 °C 54 °F /  12.2 °C 30in /  1014.9hPa West 2mph /  3.2km/h 3mph /  4.8km/h 93% 0in /  0.0mm 0 W/m2
23:09 55.9 °F /  13.3 °C 54 °F /  12.2 °C 30in /  1015.2hPa West 0.9mph /  1.4km/h 4mph /  6.4km/h 93% 0in /  0.0mm 0 W/m2
23:14 55.9 °F /  13.3 °C 54.3 °F /  12.4 °C 30in /  1015.2hPa West 2mph /  3.2km/h 4mph /  6.4km/h 94% 0in /  0.0mm 0 W/m2
23:19 55.9 °F /  13.3 °C 54.3 °F /  12.4 °C 30in /  1015.2hPa West 4mph /  6.4km/h 8mph /  12.9km/h 94% 0in /  0.0mm 0 W/m2
23:24 55.9 °F /  13.3 °C 54.3 °F /  12.4 °C 30in /  1015.2hPa SW 2mph /  3.2km/h 4mph /  6.4km/h 94% 0in /  0.0mm 0 W/m2
23:29 55.9 °F /  13.3 °C 54.3 °F /  12.4 °C 30in /  1015.2hPa West 2.9mph /  4.7km/h 6mph /  9.7km/h 94% 0in /  0.0mm 0 W/m2
23:34 56.1 °F /  13.4 °C 54.5 °F /  12.5 °C 30in /  1015.2hPa WSW 2mph /  3.2km/h 7mph /  11.3km/h 94% 0in /  0.0mm 0 W/m2
23:39 56.1 °F /  13.4 °C 54.5 °F /  12.5 °C 30in /  1015.2hPa WNW 2.9mph /  4.7km/h 6mph /  9.7km/h 94% 0in /  0.0mm 0 W/m2
23:45 56.1 °F /  13.4 °C 54.5 °F /  12.5 °C 30in /  1014.9hPa WSW 0.9mph /  1.4km/h 7mph /  11.3km/h 94% 0in /  0.0mm 0 W/m2
23:50 56.1 °F /  13.4 °C 54.5 °F /  12.5 °C 30in /  1015.2hPa West 2mph /  3.2km/h 4mph /  6.4km/h 94% 0in /  0.0mm 0 W/m2
23:55 56.1 °F /  13.4 °C 54.5 °F /  12.5 °C 30in /  1015.2hPa West 2.9mph /  4.7km/h 5mph /  8km/h 94% 0in /  0.0mm 0 W/m2
Juneau County Weather
Compliments of Weather Underground - 4 mb